createdAt,value
2022-12-18T00:00:16.792Z,51.11
2022-12-18T00:01:16.829Z,51.16
2022-12-18T00:02:16.810Z,43.34
2022-12-18T00:03:16.957Z,53.94
2022-12-18T00:04:16.890Z,49.43
2022-12-18T00:05:16.762Z,54.67
2022-12-18T00:06:16.738Z,48.26
2022-12-18T00:07:16.752Z,55.01
2022-12-18T00:08:16.744Z,54.97
2022-12-18T00:09:16.707Z,43.86
2022-12-18T00:10:16.712Z,50.26
2022-12-18T00:11:16.717Z,59.78
2022-12-18T00:13:16.791Z,57.68
2022-12-18T00:14:16.694Z,58.45
2022-12-18T00:15:16.697Z,47.13
2022-12-18T00:16:16.761Z,45.44
2022-12-18T00:17:16.681Z,44.48
2022-12-18T00:18:20.410Z,54.35
2022-12-18T00:19:16.691Z,50.66
2022-12-18T00:20:16.640Z,53.15
2022-12-18T00:21:16.628Z,49.20
2022-12-18T00:22:16.618Z,42.65
2022-12-18T00:23:16.612Z,50.56
2022-12-18T00:24:16.622Z,55.48
2022-12-18T00:25:16.634Z,50.30
2022-12-18T00:26:16.615Z,42.66
2022-12-18T00:27:16.604Z,46.41
2022-12-18T00:28:16.580Z,45.84
2022-12-18T00:29:16.594Z,49.65
2022-12-18T00:30:19.996Z,55.48
2022-12-18T00:31:16.625Z,49.98
2022-12-18T00:32:16.557Z,49.49
2022-12-18T00:33:16.561Z,54.90
2022-12-18T00:34:16.544Z,43.96
2022-12-18T00:35:17.167Z,49.58
2022-12-18T00:36:48.709Z,42.63
2022-12-18T00:37:20.001Z,42.66
2022-12-18T00:38:17.534Z,50.89
2022-12-18T00:39:16.532Z,49.78
2022-12-18T00:40:16.498Z,44.48
2022-12-18T00:41:16.509Z,54.99
2022-12-18T00:42:16.526Z,52.10
2022-12-18T00:43:16.471Z,52.12
2022-12-18T00:44:16.485Z,42.82
2022-12-18T00:45:16.464Z,49.48
2022-12-18T00:46:16.542Z,49.88
2022-12-18T00:47:16.466Z,51.49
2022-12-18T00:48:16.448Z,52.00
2022-12-18T00:49:16.419Z,49.76
2022-12-18T00:50:16.408Z,47.56
2022-12-18T00:51:16.428Z,42.51
2022-12-18T00:52:16.451Z,55.39
2022-12-18T00:53:16.427Z,49.62
2022-12-18T00:54:16.387Z,49.54
2022-12-18T00:55:16.419Z,42.51
2022-12-18T00:56:16.371Z,42.63
2022-12-18T00:57:16.405Z,50.36
2022-12-18T00:58:16.400Z,49.78
2022-12-18T00:59:16.360Z,42.74
2022-12-18T01:00:16.353Z,50.87
2022-12-18T01:01:16.442Z,46.51
2022-12-18T01:02:16.528Z,45.10
2022-12-18T01:03:16.461Z,44.70
2022-12-18T01:04:16.359Z,44.70
2022-12-18T01:05:16.341Z,44.49
2022-12-18T01:06:17.338Z,45.19
2022-12-18T01:07:16.326Z,54.46
2022-12-18T01:08:16.317Z,43.30
2022-12-18T01:09:48.185Z,42.61
2022-12-18T01:10:16.319Z,50.42
2022-12-18T01:11:16.270Z,48.02
2022-12-18T01:12:16.253Z,48.32
2022-12-18T01:13:16.262Z,42.73
2022-12-18T01:14:16.241Z,42.78
2022-12-18T01:15:16.244Z,42.73
2022-12-18T01:16:16.328Z,42.79
2022-12-18T01:17:16.204Z,42.93
2022-12-18T01:18:48.171Z,42.78
2022-12-18T01:19:16.212Z,51.19
2022-12-18T01:20:16.251Z,50.07
2022-12-18T01:21:16.192Z,43.24
2022-12-18T01:22:16.189Z,48.94
2022-12-18T01:23:16.188Z,47.86
2022-12-18T01:24:16.224Z,47.11
2022-12-18T01:25:16.172Z,51.03
2022-12-18T01:26:16.202Z,56.90
2022-12-18T01:27:16.190Z,45.20
2022-12-18T01:28:16.160Z,45.40
2022-12-18T01:29:16.182Z,44.93
2022-12-18T01:30:16.147Z,54.18
2022-12-18T01:31:16.228Z,54.41
2022-12-18T01:32:16.124Z,43.49
2022-12-18T01:33:16.119Z,42.75
2022-12-18T01:34:16.104Z,42.89
2022-12-18T01:35:16.123Z,43.54
2022-12-18T01:36:16.087Z,43.63
2022-12-18T01:37:16.091Z,43.19
2022-12-18T01:38:16.114Z,42.94
2022-12-18T01:39:16.089Z,51.07
2022-12-18T01:40:16.127Z,43.07
2022-12-18T01:41:16.062Z,43.06
2022-12-18T01:42:16.062Z,43.06
2022-12-18T01:43:16.035Z,43.00
2022-12-18T01:44:16.023Z,43.64
2022-12-18T01:45:16.059Z,50.22
2022-12-18T01:46:16.126Z,43.61
2022-12-18T01:47:16.020Z,42.86
2022-12-18T01:48:15.999Z,47.58
2022-12-18T01:49:16.801Z,55.15
2022-12-18T01:50:15.986Z,55.14
2022-12-18T01:51:16.009Z,50.66
2022-12-18T01:52:16.178Z,50.03
2022-12-18T01:53:15.962Z,44.31
2022-12-18T01:54:15.943Z,42.80
2022-12-18T01:55:16.960Z,43.07
2022-12-18T01:56:15.979Z,43.02
2022-12-18T01:57:15.958Z,51.03
2022-12-18T01:58:15.978Z,45.99
2022-12-18T01:59:15.912Z,44.77
2022-12-18T02:00:15.907Z,43.00
2022-12-18T02:01:16.054Z,48.12
2022-12-18T02:02:15.995Z,43.20
2022-12-18T02:03:15.982Z,43.09
2022-12-18T02:04:15.889Z,43.12
2022-12-18T02:05:15.874Z,43.13
2022-12-18T02:06:15.877Z,49.89
2022-12-18T02:07:15.868Z,44.95
2022-12-18T02:08:15.890Z,44.92
2022-12-18T02:09:15.838Z,52.86
2022-12-18T02:10:15.851Z,45.23
2022-12-18T02:11:15.824Z,45.53
2022-12-18T02:12:15.840Z,48.77
2022-12-18T02:13:15.889Z,50.05
2022-12-18T02:14:15.854Z,43.25
2022-12-18T02:15:15.818Z,48.43
2022-12-18T02:16:15.847Z,44.43
2022-12-18T02:17:15.797Z,45.94
2022-12-18T02:18:15.795Z,50.14
2022-12-18T02:19:15.789Z,43.58
2022-12-18T02:20:15.778Z,50.78
2022-12-18T02:21:15.786Z,43.32
2022-12-18T02:22:15.743Z,56.50
2022-12-18T02:23:15.742Z,43.86
2022-12-18T02:24:15.757Z,46.17
2022-12-18T02:25:15.739Z,51.47
2022-12-18T02:26:15.721Z,45.44
2022-12-18T02:27:15.746Z,43.93
2022-12-18T02:28:15.708Z,49.79
2022-12-18T02:29:15.799Z,48.87
2022-12-18T02:30:15.696Z,43.72
2022-12-18T02:31:15.746Z,52.69
2022-12-18T02:32:15.695Z,46.43
2022-12-18T02:33:15.673Z,44.94
2022-12-18T02:34:15.698Z,49.53
2022-12-18T02:35:15.662Z,48.52
2022-12-18T02:36:15.676Z,50.44
2022-12-18T02:37:15.644Z,43.34
2022-12-18T02:38:15.641Z,50.86
2022-12-18T02:39:15.627Z,43.16
2022-12-18T02:40:15.655Z,43.83
2022-12-18T02:41:15.628Z,53.90
2022-12-18T02:42:15.633Z,49.79
2022-12-18T02:43:15.601Z,44.59
2022-12-18T02:44:15.613Z,43.78
2022-12-18T02:45:15.677Z,43.52
2022-12-18T02:46:15.667Z,43.30
2022-12-18T02:47:16.622Z,43.24
2022-12-18T02:48:15.574Z,43.31
2022-12-18T02:49:15.571Z,49.09
2022-12-18T02:50:47.484Z,51.24
2022-12-18T02:51:15.559Z,43.51
2022-12-18T02:52:15.575Z,51.97
2022-12-18T02:53:15.539Z,46.14
2022-12-18T02:54:15.543Z,50.60
2022-12-18T02:55:15.518Z,46.39
2022-12-18T02:56:15.521Z,45.04
2022-12-18T02:57:15.520Z,45.06
2022-12-18T02:58:15.504Z,44.55
2022-12-18T02:59:15.493Z,43.83
2022-12-18T03:00:15.508Z,43.40
2022-12-18T03:01:15.676Z,50.53
2022-12-18T03:02:15.592Z,43.59
2022-12-18T03:03:15.500Z,44.08
2022-12-18T03:04:15.486Z,43.63
2022-12-18T03:05:15.451Z,49.56
2022-12-18T03:06:15.457Z,43.52
2022-12-18T03:07:15.432Z,48.21
2022-12-18T03:08:15.457Z,44.44
2022-12-18T03:09:15.435Z,43.52
2022-12-18T03:10:15.439Z,43.48
2022-12-18T03:11:15.421Z,43.49
2022-12-18T03:12:15.403Z,43.58
2022-12-18T03:13:15.396Z,43.56
2022-12-18T03:14:15.439Z,49.76
2022-12-18T03:15:17.760Z,43.56
2022-12-18T03:16:16.447Z,48.62
2022-12-18T03:17:15.436Z,44.00
2022-12-18T03:18:15.366Z,52.19
2022-12-18T03:19:15.361Z,51.68
2022-12-18T03:20:15.360Z,52.96
2022-12-18T03:21:15.358Z,45.33
2022-12-18T03:22:15.323Z,45.14
2022-12-18T03:23:15.349Z,44.27
2022-12-18T03:24:15.323Z,43.69
2022-12-18T03:25:15.352Z,48.33
2022-12-18T03:26:15.313Z,43.86
2022-12-18T03:27:15.316Z,43.52
2022-12-18T03:28:15.299Z,43.56
2022-12-18T03:29:15.286Z,49.26
2022-12-18T03:30:15.275Z,43.68
2022-12-18T03:31:15.324Z,43.65
2022-12-18T03:32:15.309Z,50.24
2022-12-18T03:33:15.333Z,43.86
2022-12-18T03:34:15.249Z,52.24
2022-12-18T03:35:15.240Z,43.72
2022-12-18T03:36:15.222Z,43.73
2022-12-18T03:37:15.231Z,43.70
2022-12-18T03:38:16.212Z,52.74
2022-12-18T03:39:15.225Z,43.41
2022-12-18T03:40:15.210Z,44.11
2022-12-18T03:41:15.205Z,45.16
2022-12-18T03:42:15.235Z,45.21
2022-12-18T03:43:15.184Z,46.59
2022-12-18T03:44:15.187Z,45.70
2022-12-18T03:45:15.161Z,45.15
2022-12-18T03:46:15.229Z,43.47
2022-12-18T03:47:15.171Z,43.40
2022-12-18T04:03:50.567Z,41.69
2022-12-18T04:04:51.555Z,41.25
2022-12-18T04:05:51.530Z,42.00
2022-12-18T04:06:51.519Z,42.33
2022-12-18T04:07:51.517Z,48.21
2022-12-18T04:08:51.490Z,43.69
2022-12-18T04:09:51.535Z,49.02
2022-12-18T04:10:51.495Z,57.17
2022-12-18T04:11:51.498Z,43.34
2022-12-18T04:12:51.461Z,43.45
2022-12-18T04:13:51.569Z,44.27
2022-12-18T04:14:51.453Z,44.05
2022-12-18T04:15:51.482Z,49.10
2022-12-18T04:16:51.471Z,54.22
2022-12-18T04:17:51.437Z,54.69
2022-12-18T04:18:51.519Z,43.58
2022-12-18T04:19:51.471Z,44.86
2022-12-18T04:20:51.402Z,45.35
2022-12-18T04:21:51.411Z,45.15
2022-12-18T04:22:51.411Z,49.76
2022-12-18T04:23:51.410Z,45.42
2022-12-18T04:24:51.420Z,51.19
2022-12-18T04:25:51.396Z,58.99
2022-12-18T04:26:51.394Z,48.88
2022-12-18T04:27:51.352Z,43.55
2022-12-18T04:28:51.350Z,43.56
2022-12-18T04:29:51.373Z,43.98
2022-12-18T04:30:51.458Z,50.41
2022-12-18T04:31:51.336Z,43.81
2022-12-18T04:32:52.486Z,43.51
2022-12-18T04:33:53.169Z,44.94
2022-12-18T04:34:51.409Z,47.30
2022-12-18T04:35:51.305Z,43.86
2022-12-18T04:36:51.325Z,49.83
2022-12-18T04:37:51.280Z,61.26
2022-12-18T04:38:51.279Z,51.37
2022-12-18T04:39:51.269Z,48.15
2022-12-18T04:40:51.283Z,49.13
2022-12-18T04:41:51.279Z,53.83
2022-12-18T04:42:51.322Z,50.50
2022-12-18T04:43:51.267Z,56.47
2022-12-18T04:44:51.243Z,55.00
2022-12-18T04:45:51.305Z,45.26
2022-12-18T04:46:51.334Z,56.00
2022-12-18T04:47:51.205Z,54.00
2022-12-18T04:48:51.220Z,46.40
2022-12-18T04:49:52.081Z,44.86
2022-12-18T04:50:51.276Z,47.63
2022-12-18T04:51:52.067Z,47.28
2022-12-18T04:52:51.218Z,43.16
2022-12-18T04:53:52.064Z,51.76
2022-12-18T04:54:51.164Z,44.99
2022-12-18T04:55:52.057Z,52.52
2022-12-18T04:56:52.062Z,57.35
2022-12-18T04:57:51.579Z,43.52
2022-12-18T04:58:52.065Z,47.90
2022-12-18T04:59:51.184Z,45.05
2022-12-18T05:00:52.051Z,43.49
2022-12-18T05:01:52.137Z,43.54
2022-12-18T05:02:51.261Z,43.38
2022-12-18T05:03:51.169Z,46.83
2022-12-18T05:04:52.067Z,46.01
2022-12-18T05:05:51.162Z,43.78
2022-12-18T05:06:52.131Z,49.82
2022-12-18T05:07:51.066Z,45.36
2022-12-18T05:08:51.067Z,45.58
2022-12-18T05:09:51.151Z,45.46
2022-12-18T05:10:52.070Z,56.06
2022-12-18T05:11:51.141Z,45.33
2022-12-18T05:12:51.158Z,49.42
2022-12-18T05:13:51.107Z,43.39
2022-12-18T05:14:51.073Z,49.26
2022-12-18T05:15:52.029Z,47.69
2022-12-18T05:16:51.481Z,44.92
2022-12-18T05:17:51.473Z,43.44
2022-12-18T05:18:51.013Z,43.42
2022-12-18T05:19:51.114Z,51.56
2022-12-18T05:20:51.078Z,50.41
2022-12-18T05:21:51.067Z,44.70
2022-12-18T05:22:51.130Z,55.47
2022-12-18T05:23:50.943Z,43.49
2022-12-18T05:24:51.044Z,43.30
2022-12-18T05:25:50.969Z,43.94
2022-12-18T05:26:50.964Z,58.79
2022-12-18T05:27:50.923Z,50.20
2022-12-18T05:28:50.917Z,50.88
2022-12-18T05:29:50.909Z,46.20
2022-12-18T05:30:50.975Z,55.77
2022-12-18T05:31:50.989Z,57.66
2022-12-18T05:32:50.913Z,54.11
2022-12-18T05:33:50.864Z,52.95
2022-12-18T05:34:50.885Z,51.48
2022-12-18T05:35:50.873Z,44.47
2022-12-18T05:36:50.940Z,56.22
2022-12-18T05:37:50.855Z,50.80
2022-12-18T05:38:50.933Z,54.78
2022-12-18T05:39:50.835Z,44.16
2022-12-18T05:40:50.823Z,44.53
2022-12-18T05:41:50.854Z,45.04
2022-12-18T05:42:50.811Z,49.10
2022-12-18T05:43:50.803Z,45.63
2022-12-18T05:44:50.807Z,43.92
2022-12-18T05:45:50.791Z,43.65
2022-12-18T05:46:50.867Z,43.67
2022-12-18T05:47:50.794Z,43.63
2022-12-18T05:48:50.805Z,43.99
2022-12-18T05:49:50.765Z,44.36
2022-12-18T05:50:50.762Z,56.36
2022-12-18T05:51:50.752Z,45.54
2022-12-18T05:52:50.752Z,45.34
2022-12-18T05:53:50.752Z,45.29
2022-12-18T05:54:51.746Z,46.35
2022-12-18T05:55:50.727Z,50.87
2022-12-18T05:56:51.622Z,47.05
2022-12-18T05:57:50.736Z,50.11
2022-12-18T05:58:50.718Z,44.65
2022-12-18T05:59:50.704Z,48.56
2022-12-18T06:00:50.706Z,49.04
2022-12-18T06:01:50.752Z,56.47
2022-12-18T06:02:50.811Z,54.50
2022-12-18T06:03:50.754Z,44.12
2022-12-18T06:04:50.665Z,46.24
2022-12-18T06:05:50.667Z,50.31
2022-12-18T06:06:50.634Z,46.56
2022-12-18T06:07:50.770Z,44.03
2022-12-18T06:08:50.637Z,50.75
2022-12-18T06:09:51.649Z,50.17
2022-12-18T06:10:50.807Z,51.20
2022-12-18T06:11:50.606Z,45.61
2022-12-18T06:12:50.613Z,45.76
2022-12-18T06:13:54.759Z,50.17
2022-12-18T06:14:52.608Z,45.72
2022-12-18T06:15:50.626Z,45.58
2022-12-18T06:16:51.575Z,55.98
2022-12-18T06:17:50.589Z,51.03
2022-12-18T06:18:50.599Z,50.91
2022-12-18T06:19:50.614Z,50.68
2022-12-18T06:20:50.594Z,43.88
2022-12-18T06:21:50.545Z,56.25
2022-12-18T06:22:50.550Z,44.68
2022-12-18T06:23:50.547Z,56.41
2022-12-18T06:24:50.566Z,44.21
2022-12-18T06:25:50.518Z,43.71
2022-12-18T06:26:51.230Z,51.75
2022-12-18T06:27:50.560Z,48.25
2022-12-18T06:28:50.513Z,50.37
2022-12-18T06:29:50.504Z,51.11
2022-12-18T06:30:50.490Z,44.06
2022-12-18T06:31:50.514Z,47.37
2022-12-18T06:32:54.676Z,53.17
2022-12-18T06:33:52.456Z,56.92
2022-12-18T06:34:50.455Z,57.58
2022-12-18T06:36:22.370Z,63.31
2022-12-18T06:36:50.446Z,56.38
2022-12-18T06:37:50.431Z,55.42
2022-12-18T06:38:50.421Z,59.07
2022-12-18T06:39:50.416Z,55.42
2022-12-18T06:40:50.409Z,52.33
2022-12-18T06:41:50.436Z,47.93
2022-12-18T06:42:50.477Z,44.05
2022-12-18T06:43:50.390Z,44.17
2022-12-18T06:44:50.404Z,50.70
2022-12-18T06:45:50.491Z,63.71
2022-12-18T06:46:50.415Z,49.42
2022-12-18T06:47:50.366Z,55.16
2022-12-18T06:48:50.385Z,55.05
2022-12-18T06:49:50.350Z,53.41
2022-12-18T06:50:50.358Z,50.43
2022-12-18T06:51:50.345Z,47.81
2022-12-18T06:52:50.350Z,44.71
2022-12-18T06:53:50.363Z,46.90
2022-12-18T06:54:51.332Z,49.96
2022-12-18T06:55:50.311Z,54.03
2022-12-18T06:56:50.298Z,56.39
2022-12-18T06:57:50.325Z,50.47
2022-12-18T06:58:50.392Z,54.58
2022-12-18T06:59:50.317Z,58.67
2022-12-18T07:00:50.335Z,46.01
2022-12-18T07:01:50.601Z,45.64
2022-12-18T07:02:50.396Z,51.48
2022-12-18T07:03:50.276Z,53.42
2022-12-18T07:04:50.275Z,44.93
2022-12-18T07:05:50.267Z,44.40
2022-12-18T07:06:50.252Z,44.52
2022-12-18T07:07:50.249Z,44.77
2022-12-18T07:08:50.234Z,51.80
2022-12-18T07:09:50.246Z,48.84
2022-12-18T07:10:55.791Z,50.70
2022-12-18T07:11:52.219Z,48.90
2022-12-18T07:12:50.203Z,50.36
2022-12-18T07:13:50.196Z,50.97
2022-12-18T07:14:50.289Z,60.07
2022-12-18T07:15:50.187Z,55.07
2022-12-18T07:16:50.254Z,53.48
2022-12-18T07:17:50.186Z,45.20
2022-12-18T07:18:50.181Z,56.61
2022-12-18T07:19:50.267Z,46.88
2022-12-18T07:20:50.178Z,48.62
2022-12-18T07:21:50.155Z,51.10
2022-12-18T07:22:56.020Z,55.77
2022-12-18T07:23:52.119Z,51.56
2022-12-18T07:24:50.699Z,54.62
2022-12-18T07:25:50.126Z,50.11
2022-12-18T07:26:50.126Z,46.94
2022-12-18T07:27:50.112Z,55.21
2022-12-18T07:28:50.141Z,51.90
2022-12-18T07:29:50.080Z,51.32
2022-12-18T07:30:50.168Z,56.71
2022-12-18T07:31:50.211Z,44.36
2022-12-18T07:32:51.079Z,49.82
2022-12-18T07:33:50.056Z,55.08
2022-12-18T07:34:50.060Z,44.53
2022-12-18T07:35:50.046Z,50.37
2022-12-18T07:36:50.080Z,49.37
2022-12-18T07:37:50.041Z,57.57
2022-12-18T07:38:50.028Z,57.64
2022-12-18T07:39:50.190Z,52.62
2022-12-18T07:40:50.031Z,61.21
2022-12-18T07:41:50.029Z,52.26
2022-12-18T07:42:50.019Z,56.24
2022-12-18T07:43:50.014Z,60.56
2022-12-18T07:44:49.992Z,51.01
2022-12-18T07:45:50.754Z,56.17
2022-12-18T07:46:50.076Z,54.71
2022-12-18T07:47:49.989Z,51.90
2022-12-18T07:48:50.539Z,60.32
2022-12-18T07:49:49.984Z,57.50
2022-12-18T07:50:49.957Z,54.69
2022-12-18T07:51:49.917Z,52.55
2022-12-18T07:52:49.957Z,57.99
2022-12-18T07:53:52.432Z,56.57
2022-12-18T07:54:49.977Z,50.27
2022-12-18T07:56:18.404Z,51.10
2022-12-18T07:56:51.912Z,51.62
2022-12-18T07:57:51.816Z,53.86
2022-12-18T07:58:50.892Z,53.67
2022-12-18T07:59:49.894Z,59.92
2022-12-18T08:00:49.957Z,53.63
2022-12-18T08:01:49.999Z,57.43
2022-12-18T08:02:51.061Z,60.80
2022-12-18T08:03:50.152Z,52.38
2022-12-18T08:04:49.908Z,59.51
2022-12-18T08:05:49.867Z,63.39
2022-12-18T08:06:49.903Z,58.06
2022-12-18T08:07:49.837Z,51.12
2022-12-18T08:08:49.837Z,48.43
2022-12-18T08:09:49.826Z,55.00
2022-12-18T08:10:49.816Z,53.58
2022-12-18T08:11:49.838Z,54.00
2022-12-18T08:12:49.792Z,57.00
2022-12-18T08:13:49.795Z,61.66
2022-12-18T08:14:49.779Z,53.06
2022-12-18T08:15:49.800Z,57.17
2022-12-18T08:16:49.868Z,48.08
2022-12-18T08:17:49.772Z,56.80
2022-12-18T08:18:49.861Z,60.28
2022-12-18T08:19:49.748Z,50.17
2022-12-18T08:20:49.863Z,46.72
2022-12-18T08:21:49.778Z,57.00
2022-12-18T08:22:49.733Z,47.88
2022-12-18T08:23:51.095Z,50.41
2022-12-18T08:24:49.706Z,46.73
2022-12-18T08:25:49.737Z,56.40
2022-12-18T08:27:06.785Z,63.18
2022-12-18T08:27:51.727Z,62.54
2022-12-18T08:28:49.686Z,62.66
2022-12-18T08:29:49.680Z,58.79
2022-12-18T08:30:49.730Z,57.06
2022-12-18T08:31:49.687Z,58.55
2022-12-18T08:32:49.672Z,51.56
2022-12-18T08:33:49.648Z,62.25
2022-12-18T08:34:49.747Z,61.61
2022-12-18T08:35:49.627Z,64.90
2022-12-18T08:36:49.672Z,62.60
2022-12-18T08:37:49.633Z,55.41
2022-12-18T08:38:49.628Z,57.16
2022-12-18T08:39:52.568Z,63.91
2022-12-18T08:40:49.617Z,58.10
2022-12-18T08:41:49.606Z,62.22
2022-12-18T08:42:49.587Z,56.31
2022-12-18T08:43:49.613Z,68.00
2022-12-18T08:44:50.072Z,57.15
2022-12-18T08:45:49.645Z,63.32
2022-12-18T08:46:49.605Z,61.13
2022-12-18T08:47:49.554Z,61.79
2022-12-18T08:48:49.543Z,50.41
2022-12-18T08:49:49.618Z,57.01
2022-12-18T08:50:49.609Z,57.12
2022-12-18T08:51:49.518Z,60.29
2022-12-18T08:52:49.530Z,63.63
2022-12-18T08:53:49.541Z,62.99
2022-12-18T08:54:49.597Z,52.14
2022-12-18T08:55:50.475Z,62.01
2022-12-18T08:56:50.587Z,65.45
2022-12-18T08:57:50.083Z,57.39
2022-12-18T08:58:49.505Z,62.31
2022-12-18T08:59:49.506Z,61.41
2022-12-18T09:00:49.488Z,63.88
2022-12-18T09:01:49.588Z,59.31
2022-12-18T09:02:49.544Z,56.66
2022-12-18T09:03:49.450Z,62.89
2022-12-18T09:04:55.428Z,50.08
2022-12-18T09:05:51.450Z,59.23
2022-12-18T09:06:54.999Z,61.15
2022-12-18T09:07:50.501Z,64.41
2022-12-18T09:08:49.399Z,58.33
2022-12-18T09:09:49.419Z,66.75
2022-12-18T09:10:50.181Z,64.79
2022-12-18T09:11:49.433Z,60.01
2022-12-18T09:12:49.437Z,52.32
2022-12-18T09:13:49.365Z,64.76
2022-12-18T09:14:49.381Z,55.09
2022-12-18T09:15:49.349Z,61.83
2022-12-18T09:16:49.400Z,55.99
2022-12-18T09:17:49.330Z,63.45
2022-12-18T09:18:49.332Z,62.85
2022-12-18T09:19:49.321Z,64.83
2022-12-18T09:20:49.322Z,63.94
2022-12-18T09:21:49.368Z,64.26
2022-12-18T09:22:49.325Z,55.61
2022-12-18T09:23:49.366Z,64.34
2022-12-18T09:24:49.273Z,59.46
2022-12-18T09:25:49.314Z,61.34
2022-12-18T09:26:50.002Z,54.62
2022-12-18T09:27:49.238Z,52.75
2022-12-18T09:28:49.258Z,59.73
2022-12-18T09:29:49.273Z,60.63
2022-12-18T09:30:49.254Z,62.81
2022-12-18T09:31:49.216Z,60.58
2022-12-18T09:32:49.294Z,58.50
2022-12-18T09:33:49.193Z,54.79
2022-12-18T09:34:49.207Z,56.90
2022-12-18T09:35:49.187Z,64.55
2022-12-18T09:36:49.207Z,56.66
2022-12-18T09:37:49.186Z,57.97
2022-12-18T09:38:49.172Z,57.24
2022-12-18T09:39:49.252Z,60.66
2022-12-18T09:40:49.146Z,56.04
2022-12-18T09:41:49.170Z,52.36
2022-12-18T09:42:49.160Z,49.20
2022-12-18T09:43:49.126Z,66.42
2022-12-18T09:44:49.235Z,60.33
2022-12-18T09:45:49.158Z,63.31
2022-12-18T09:46:49.113Z,51.08
2022-12-18T09:47:49.166Z,57.58
2022-12-18T09:48:49.103Z,61.79
2022-12-18T09:49:49.085Z,60.90
2022-12-18T09:50:49.095Z,64.53
2022-12-18T09:51:49.061Z,60.36
2022-12-18T09:52:49.087Z,61.11
2022-12-18T09:53:49.075Z,54.92
2022-12-18T09:54:49.040Z,59.95
2022-12-18T09:55:50.769Z,63.32
2022-12-18T09:56:49.042Z,63.65
2022-12-18T09:57:49.031Z,51.90
2022-12-18T09:58:49.037Z,58.33
2022-12-18T09:59:49.065Z,60.59
2022-12-18T10:00:49.021Z,59.72
2022-12-18T10:01:49.744Z,53.36
2022-12-18T10:02:49.128Z,58.24
2022-12-18T10:03:48.972Z,62.58
2022-12-18T10:04:49.146Z,58.89
2022-12-18T10:05:49.054Z,65.28
2022-12-18T10:06:49.047Z,60.13
2022-12-18T10:07:48.948Z,63.26
2022-12-18T10:08:48.937Z,61.76
2022-12-18T10:09:48.932Z,66.38
2022-12-18T10:10:48.957Z,65.97
2022-12-18T10:11:48.995Z,64.51
2022-12-18T10:12:48.929Z,62.05
2022-12-18T10:13:48.896Z,65.76
2022-12-18T10:14:48.906Z,65.69
2022-12-18T10:15:48.960Z,60.95
2022-12-18T10:16:48.918Z,55.88
2022-12-18T10:17:48.914Z,61.45
2022-12-18T10:18:48.976Z,62.10
2022-12-18T10:19:48.871Z,61.71
2022-12-18T10:20:48.847Z,59.44
2022-12-18T10:21:49.751Z,56.96
2022-12-18T10:22:48.855Z,60.41
2022-12-18T10:23:48.861Z,50.62
2022-12-18T10:24:49.722Z,60.15
2022-12-18T10:25:48.801Z,58.26
2022-12-18T10:26:48.787Z,62.67
2022-12-18T10:27:48.944Z,61.03
2022-12-18T10:28:49.811Z,66.77
2022-12-18T10:29:48.792Z,59.46
2022-12-18T10:30:48.809Z,61.13
2022-12-18T10:31:48.790Z,62.79
2022-12-18T10:32:48.791Z,67.86
2022-12-18T10:33:48.789Z,60.22
2022-12-18T10:34:48.754Z,62.37
2022-12-18T10:35:48.738Z,51.18
2022-12-18T10:36:48.732Z,56.43
2022-12-18T10:37:48.721Z,64.16
2022-12-18T10:38:48.753Z,68.16
2022-12-18T10:39:48.709Z,59.57
2022-12-18T10:40:48.709Z,60.16
2022-12-18T10:41:48.687Z,62.82
2022-12-18T10:42:48.700Z,57.64
2022-12-18T10:43:48.778Z,62.47
2022-12-18T10:44:48.691Z,60.70
2022-12-18T10:45:48.665Z,64.33
2022-12-18T10:46:48.654Z,63.81
2022-12-18T10:47:48.651Z,64.84
2022-12-18T10:48:48.676Z,54.86
2022-12-18T10:49:48.664Z,65.86
2022-12-18T10:51:13.623Z,65.86
2022-12-18T10:51:50.613Z,61.53
2022-12-18T10:52:48.610Z,61.67
2022-12-18T10:53:49.175Z,67.66
2022-12-18T10:54:48.641Z,60.90
2022-12-18T10:55:48.585Z,68.15
2022-12-18T10:56:48.586Z,65.63
2022-12-18T10:57:48.567Z,64.11
2022-12-18T10:58:48.560Z,64.83
2022-12-18T10:59:48.651Z,64.46
2022-12-18T11:00:48.607Z,61.55
2022-12-18T11:01:48.728Z,66.03
2022-12-18T11:02:48.682Z,60.31
2022-12-18T11:03:48.601Z,62.35
2022-12-18T11:04:48.539Z,58.12
2022-12-18T11:05:48.537Z,66.73
2022-12-18T11:06:48.523Z,64.44
2022-12-18T11:07:48.489Z,66.62
2022-12-18T11:08:48.498Z,67.11
2022-12-18T11:09:48.488Z,63.87
2022-12-18T11:10:48.484Z,65.57
2022-12-18T11:11:48.467Z,61.84
2022-12-18T11:12:48.467Z,59.04
2022-12-18T11:13:48.470Z,63.96
2022-12-18T11:14:48.436Z,59.19
2022-12-18T11:15:48.589Z,60.79
2022-12-18T11:17:23.869Z,55.42
2022-12-18T11:17:50.465Z,67.78
2022-12-18T11:18:48.412Z,58.82
2022-12-18T11:19:48.410Z,56.23
2022-12-18T11:20:48.406Z,67.14
2022-12-18T11:21:48.450Z,56.18
2022-12-18T11:22:48.382Z,65.28
2022-12-18T11:23:48.375Z,65.47
2022-12-18T11:25:08.369Z,68.22
2022-12-18T11:25:50.340Z,54.33
2022-12-18T11:26:48.359Z,53.17
2022-12-18T11:27:48.368Z,59.00
2022-12-18T11:28:48.328Z,62.58
2022-12-18T11:29:48.332Z,61.65
2022-12-18T11:30:48.355Z,59.88
2022-12-18T11:31:48.497Z,59.92
2022-12-18T11:32:48.319Z,60.94
2022-12-18T11:34:11.841Z,62.34
2022-12-18T11:34:53.553Z,53.90
2022-12-18T11:35:49.285Z,50.54
2022-12-18T11:36:48.264Z,59.66
2022-12-18T11:37:48.267Z,66.09
2022-12-18T11:38:48.272Z,56.69
2022-12-18T11:39:48.285Z,56.08
2022-12-18T11:40:48.269Z,68.15
2022-12-18T11:41:48.274Z,63.28
2022-12-18T11:42:48.239Z,63.61
2022-12-18T11:43:48.227Z,55.36
2022-12-18T11:44:48.276Z,68.21
2022-12-18T11:45:48.204Z,65.82
2022-12-18T11:46:48.215Z,59.63
2022-12-18T11:47:48.275Z,60.72
2022-12-18T11:48:48.217Z,65.07
2022-12-18T11:49:48.204Z,60.82
2022-12-18T11:50:48.178Z,60.48
2022-12-18T11:51:48.155Z,60.63
2022-12-18T11:52:52.793Z,61.73
2022-12-18T11:53:49.277Z,65.38
2022-12-18T11:54:48.144Z,62.19
2022-12-18T11:55:48.139Z,60.72
2022-12-18T11:56:48.128Z,59.91
2022-12-18T11:57:48.134Z,65.36
2022-12-18T11:58:48.127Z,61.95
2022-12-18T11:59:48.160Z,65.87
2022-12-18T12:00:48.172Z,66.15
2022-12-18T12:01:48.175Z,54.34
2022-12-18T12:02:48.218Z,66.57
2022-12-18T12:03:48.215Z,63.50
2022-12-18T12:04:48.108Z,60.10
2022-12-18T12:05:48.108Z,61.64
2022-12-18T12:06:48.153Z,58.48
2022-12-18T12:07:48.089Z,59.10
2022-12-18T12:08:48.056Z,66.74
2022-12-18T12:09:48.026Z,63.59
2022-12-18T12:10:48.058Z,65.86
2022-12-18T12:11:48.028Z,65.21
2022-12-18T12:12:49.531Z,58.07
2022-12-18T12:13:48.984Z,66.52
2022-12-18T12:14:47.975Z,55.38
2022-12-18T12:15:48.032Z,59.05
2022-12-18T12:16:48.043Z,64.40
2022-12-18T12:17:47.968Z,61.63
2022-12-18T12:18:47.956Z,62.95
2022-12-18T12:19:48.022Z,60.34
2022-12-18T12:20:47.971Z,61.20
2022-12-18T12:21:48.940Z,66.69
2022-12-18T12:22:47.933Z,62.00
2022-12-18T12:23:47.925Z,60.48
2022-12-18T12:24:47.935Z,66.23
2022-12-18T12:25:47.933Z,65.82
2022-12-18T12:26:47.917Z,64.56
2022-12-18T12:27:47.905Z,63.78
2022-12-18T12:28:47.907Z,62.97
2022-12-18T12:29:47.889Z,66.74
2022-12-18T12:30:47.911Z,66.29
2022-12-18T12:31:47.973Z,59.78
2022-12-18T12:32:47.941Z,64.88
2022-12-18T12:33:47.880Z,66.11
2022-12-18T12:34:48.768Z,60.04
2022-12-18T12:35:48.780Z,64.53
2022-12-18T12:37:19.843Z,67.14
2022-12-18T12:37:47.810Z,66.85
2022-12-18T12:38:51.899Z,59.14
2022-12-18T12:39:48.792Z,63.49
2022-12-18T12:40:56.633Z,62.05
2022-12-18T12:41:49.783Z,63.23
2022-12-18T12:42:47.794Z,64.03
2022-12-18T12:44:19.685Z,67.17
2022-12-18T12:44:51.360Z,58.45
2022-12-18T12:45:49.878Z,64.64
2022-12-18T12:46:47.762Z,66.88
2022-12-18T12:48:19.702Z,65.65
2022-12-18T12:49:19.705Z,55.26
2022-12-18T12:49:47.743Z,62.01
2022-12-18T12:50:47.718Z,63.34
2022-12-18T12:51:47.816Z,63.50
2022-12-18T12:52:47.700Z,60.61
2022-12-18T12:53:47.715Z,63.57
2022-12-18T12:54:47.706Z,59.63
2022-12-18T12:55:47.766Z,68.05
2022-12-18T12:56:47.732Z,63.75
2022-12-18T12:57:47.677Z,62.87
2022-12-18T12:58:47.721Z,57.39
2022-12-18T13:00:19.580Z,68.55
2022-12-18T13:00:47.756Z,66.98
2022-12-18T13:01:47.763Z,58.43
2022-12-18T13:02:47.654Z,64.43
2022-12-18T13:04:19.533Z,68.12
2022-12-18T13:04:47.689Z,63.82
2022-12-18T13:05:47.630Z,63.27
2022-12-18T13:07:19.742Z,64.58
2022-12-18T13:07:47.636Z,65.50
2022-12-18T13:08:47.802Z,66.57